sensor_id;sensor_type;location;lat;lon;timestamp;pressure;altitude;pressure_sealevel;temperature
43292;BMP280;28754;47.700;7.924;2023-03-01T00:02:36;91591.91;;;-0.89
43292;BMP280;28754;47.700;7.924;2023-03-01T00:05:23;91588.09;;;-0.79
43292;BMP280;28754;47.700;7.924;2023-03-01T00:08:10;91602.63;;;-0.74
43292;BMP280;28754;47.700;7.924;2023-03-01T00:11:07;91597.00;;;-0.76
43292;BMP280;28754;47.700;7.924;2023-03-01T00:13:58;91583.22;;;-0.87
43292;BMP280;28754;47.700;7.924;2023-03-01T00:16:45;91605.25;;;-0.89
43292;BMP280;28754;47.700;7.924;2023-03-01T00:19:32;91603.72;;;-0.90
43292;BMP280;28754;47.700;7.924;2023-03-01T00:22:19;91599.81;;;-0.92
43292;BMP280;28754;47.700;7.924;2023-03-01T00:25:06;91596.69;;;-0.94
43292;BMP280;28754;47.700;7.924;2023-03-01T00:27:52;91600.19;;;-0.95
43292;BMP280;28754;47.700;7.924;2023-03-01T00:30:39;91580.47;;;-0.98
43292;BMP280;28754;47.700;7.924;2023-03-01T00:33:26;91586.81;;;-1.02
43292;BMP280;28754;47.700;7.924;2023-03-01T00:36:15;91592.78;;;-1.03
43292;BMP280;28754;47.700;7.924;2023-03-01T00:39:05;91573.28;;;-1.01
43292;BMP280;28754;47.700;7.924;2023-03-01T00:41:52;91588.72;;;-1.04
43292;BMP280;28754;47.700;7.924;2023-03-01T00:44:39;91586.81;;;-1.02
43292;BMP280;28754;47.700;7.924;2023-03-01T00:47:28;91588.59;;;-0.96
43292;BMP280;28754;47.700;7.924;2023-03-01T00:50:16;91577.81;;;-0.84
43292;BMP280;28754;47.700;7.924;2023-03-01T00:53:03;91581.53;;;-0.73
43292;BMP280;28754;47.700;7.924;2023-03-01T00:55:51;91578.06;;;-0.72
43292;BMP280;28754;47.700;7.924;2023-03-01T00:58:38;91575.56;;;-0.72
43292;BMP280;28754;47.700;7.924;2023-03-01T01:01:28;91571.16;;;-0.64
43292;BMP280;28754;47.700;7.924;2023-03-01T01:04:18;91567.31;;;-0.54
43292;BMP280;28754;47.700;7.924;2023-03-01T01:07:05;91567.72;;;-0.44
43292;BMP280;28754;47.700;7.924;2023-03-01T01:09:52;91568.53;;;-0.37
43292;BMP280;28754;47.700;7.924;2023-03-01T01:12:38;91560.03;;;-0.36
43292;BMP280;28754;47.700;7.924;2023-03-01T01:15:25;91563.50;;;-0.37
43292;BMP280;28754;47.700;7.924;2023-03-01T01:18:12;91544.34;;;-0.38
43292;BMP280;28754;47.700;7.924;2023-03-01T01:21:09;91559.22;;;-0.43
43292;BMP280;28754;47.700;7.924;2023-03-01T01:23:57;91556.50;;;-0.48
43292;BMP280;28754;47.700;7.924;2023-03-01T01:26:43;91548.75;;;-0.53
43292;BMP280;28754;47.700;7.924;2023-03-01T01:29:30;91547.75;;;-0.58
43292;BMP280;28754;47.700;7.924;2023-03-01T01:32:17;91551.59;;;-0.62
43292;BMP280;28754;47.700;7.924;2023-03-01T01:35:04;91547.53;;;-0.63
43292;BMP280;28754;47.700;7.924;2023-03-01T01:37:50;91539.22;;;-0.64
43292;BMP280;28754;47.700;7.924;2023-03-01T01:40:44;91539.84;;;-0.55
43292;BMP280;28754;47.700;7.924;2023-03-01T01:43:37;91534.84;;;-0.49
43292;BMP280;28754;47.700;7.924;2023-03-01T01:46:32;91531.72;;;-0.51
43292;BMP280;28754;47.700;7.924;2023-03-01T01:49:50;91532.13;;;-0.47
43292;BMP280;28754;47.700;7.924;2023-03-01T01:52:37;91513.75;;;-0.48
43292;BMP280;28754;47.700;7.924;2023-03-01T01:55:27;91517.59;;;-0.45
43292;BMP280;28754;47.700;7.924;2023-03-01T01:58:19;91515.28;;;-0.53
43292;BMP280;28754;47.700;7.924;2023-03-01T02:01:07;91523.22;;;-0.50
43292;BMP280;28754;47.700;7.924;2023-03-01T02:03:54;91512.78;;;-0.53
43292;BMP280;28754;47.700;7.924;2023-03-01T02:06:51;91517.78;;;-0.60
43292;BMP280;28754;47.700;7.924;2023-03-01T02:09:42;91514.66;;;-0.68
43292;BMP280;28754;47.700;7.924;2023-03-01T02:12:31;91515.81;;;-0.70
43292;BMP280;28754;47.700;7.924;2023-03-01T02:15:17;91521.03;;;-0.66
43292;BMP280;28754;47.700;7.924;2023-03-01T02:18:06;91512.16;;;-0.62
43292;BMP280;28754;47.700;7.924;2023-03-01T02:28:05;91483.69;;;-0.69
43292;BMP280;28754;47.700;7.924;2023-03-01T02:30:55;91494.34;;;-0.60
43292;BMP280;28754;47.700;7.924;2023-03-01T02:34:01;91494.94;;;-0.58
43292;BMP280;28754;47.700;7.924;2023-03-01T02:37:06;91478.13;;;-0.64
43292;BMP280;28754;47.700;7.924;2023-03-01T02:40:03;91480.81;;;-0.66
43292;BMP280;28754;47.700;7.924;2023-03-01T02:42:56;91481.56;;;-0.71
43292;BMP280;28754;47.700;7.924;2023-03-01T02:45:52;91480.38;;;-0.75
43292;BMP280;28754;47.700;7.924;2023-03-01T02:48:48;91474.78;;;-0.77
43292;BMP280;28754;47.700;7.924;2023-03-01T02:57:53;91482.53;;;-0.79
43292;BMP280;28754;47.700;7.924;2023-03-01T03:00:42;91463.34;;;-0.86
43292;BMP280;28754;47.700;7.924;2023-03-01T03:03:34;91463.13;;;-0.91
43292;BMP280;28754;47.700;7.924;2023-03-01T03:06:20;91459.28;;;-0.94
43292;BMP280;28754;47.700;7.924;2023-03-01T03:09:07;91461.53;;;-0.99
43292;BMP280;28754;47.700;7.924;2023-03-01T03:11:54;91460.81;;;-0.93
43292;BMP280;28754;47.700;7.924;2023-03-01T03:14:42;91462.38;;;-0.92
43292;BMP280;28754;47.700;7.924;2023-03-01T03:17:28;91466.59;;;-0.92
43292;BMP280;28754;47.700;7.924;2023-03-01T03:20:18;91468.16;;;-0.91
43292;BMP280;28754;47.700;7.924;2023-03-01T03:23:06;91463.50;;;-0.88
43292;BMP280;28754;47.700;7.924;2023-03-01T03:25:52;91457.38;;;-0.85
43292;BMP280;28754;47.700;7.924;2023-03-01T03:28:39;91471.91;;;-0.74
43292;BMP280;28754;47.700;7.924;2023-03-01T03:31:26;91455.84;;;-0.73
43292;BMP280;28754;47.700;7.924;2023-03-01T03:34:13;91470.91;;;-0.73
43292;BMP280;28754;47.700;7.924;2023-03-01T03:37:04;91469.56;;;-0.76
43292;BMP280;28754;47.700;7.924;2023-03-01T03:40:11;91464.53;;;-0.76
43292;BMP280;28754;47.700;7.924;2023-03-01T03:43:10;91465.31;;;-0.75
43292;BMP280;28754;47.700;7.924;2023-03-01T03:45:58;91464.34;;;-0.81
43292;BMP280;28754;47.700;7.924;2023-03-01T03:48:45;91462.59;;;-0.80
43292;BMP280;28754;47.700;7.924;2023-03-01T03:51:32;91454.47;;;-0.82
43292;BMP280;28754;47.700;7.924;2023-03-01T03:54:19;91446.91;;;-0.89
43292;BMP280;28754;47.700;7.924;2023-03-01T03:57:06;91451.16;;;-0.89
43292;BMP280;28754;47.700;7.924;2023-03-01T03:59:53;91454.25;;;-0.94
43292;BMP280;28754;47.700;7.924;2023-03-01T04:02:41;91448.63;;;-0.96
43292;BMP280;28754;47.700;7.924;2023-03-01T04:05:29;91448.81;;;-0.97
43292;BMP280;28754;47.700;7.924;2023-03-01T04:08:21;91443.19;;;-0.99
43292;BMP280;28754;47.700;7.924;2023-03-01T04:11:09;91434.13;;;-1.00
43292;BMP280;28754;47.700;7.924;2023-03-01T04:14:14;91439.88;;;-1.06
43292;BMP280;28754;47.700;7.924;2023-03-01T04:17:00;91428.66;;;-1.10
43292;BMP280;28754;47.700;7.924;2023-03-01T04:19:47;91433.47;;;-1.15
43292;BMP280;28754;47.700;7.924;2023-03-01T04:22:35;91427.88;;;-1.17
43292;BMP280;28754;47.700;7.924;2023-03-01T04:25:21;91436.72;;;-1.21
43292;BMP280;28754;47.700;7.924;2023-03-01T04:28:12;91430.53;;;-1.25
43292;BMP280;28754;47.700;7.924;2023-03-01T04:31:06;91451.38;;;-1.31
43292;BMP280;28754;47.700;7.924;2023-03-01T04:33:59;91436.69;;;-1.34
43292;BMP280;28754;47.700;7.924;2023-03-01T04:36:46;91426.44;;;-1.38
43292;BMP280;28754;47.700;7.924;2023-03-01T04:39:33;91434.94;;;-1.33
43292;BMP280;28754;47.700;7.924;2023-03-01T04:42:19;91427.63;;;-1.28
43292;BMP280;28754;47.700;7.924;2023-03-01T04:45:06;91414.84;;;-1.33
43292;BMP280;28754;47.700;7.924;2023-03-01T04:47:59;91419.31;;;-1.29
43292;BMP280;28754;47.700;7.924;2023-03-01T04:50:45;91421.66;;;-1.21
43292;BMP280;28754;47.700;7.924;2023-03-01T04:53:33;91412.00;;;-1.24
43292;BMP280;28754;47.700;7.924;2023-03-01T04:56:22;91422.44;;;-1.20
43292;BMP280;28754;47.700;7.924;2023-03-01T04:59:09;91417.41;;;-1.20
43292;BMP280;28754;47.700;7.924;2023-03-01T05:01:56;91414.69;;;-1.25
43292;BMP280;28754;47.700;7.924;2023-03-01T05:04:43;91405.97;;;-1.29
43292;BMP280;28754;47.700;7.924;2023-03-01T05:07:30;91410.22;;;-1.30
43292;BMP280;28754;47.700;7.924;2023-03-01T05:10:17;91414.66;;;-1.32
43292;BMP280;28754;47.700;7.924;2023-03-01T05:13:04;91402.28;;;-1.33
43292;BMP280;28754;47.700;7.924;2023-03-01T05:15:59;91405.59;;;-1.33
43292;BMP280;28754;47.700;7.924;2023-03-01T05:18:46;91407.91;;;-1.31
43292;BMP280;28754;47.700;7.924;2023-03-01T05:21:33;91405.38;;;-1.31
43292;BMP280;28754;47.700;7.924;2023-03-01T05:24:20;91403.84;;;-1.32
43292;BMP280;28754;47.700;7.924;2023-03-01T05:27:06;91397.25;;;-1.33
43292;BMP280;28754;47.700;7.924;2023-03-01T05:29:53;91405.97;;;-1.29
43292;BMP280;28754;47.700;7.924;2023-03-01T05:32:46;91399.22;;;-1.29
43292;BMP280;28754;47.700;7.924;2023-03-01T05:35:33;91393.81;;;-1.26
43292;BMP280;28754;47.700;7.924;2023-03-01T05:38:21;91397.53;;;-1.22
43292;BMP280;28754;47.700;7.924;2023-03-01T05:41:14;91403.09;;;-1.20
43292;BMP280;28754;47.700;7.924;2023-03-01T05:44:03;91391.13;;;-1.18
43292;BMP280;28754;47.700;7.924;2023-03-01T05:46:51;91391.94;;;-1.17
43292;BMP280;28754;47.700;7.924;2023-03-01T05:49:38;91376.84;;;-1.17
43292;BMP280;28754;47.700;7.924;2023-03-01T05:52:24;91374.34;;;-1.17
43292;BMP280;28754;47.700;7.924;2023-03-01T05:55:11;91374.34;;;-1.17
43292;BMP280;28754;47.700;7.924;2023-03-01T05:58:05;91367.38;;;-1.22
43292;BMP280;28754;47.700;7.924;2023-03-01T06:00:52;91364.88;;;-1.22
43292;BMP280;28754;47.700;7.924;2023-03-01T06:03:39;91365.22;;;-1.25
43292;BMP280;28754;47.700;7.924;2023-03-01T06:06:25;91361.38;;;-1.21
43292;BMP280;28754;47.700;7.924;2023-03-01T06:09:12;91360.22;;;-1.18
43292;BMP280;28754;47.700;7.924;2023-03-01T06:11:59;91361.22;;;-1.13
43292;BMP280;28754;47.700;7.924;2023-03-01T06:14:46;91373.19;;;-1.15
43292;BMP280;28754;47.700;7.924;2023-03-01T06:17:37;91363.31;;;-1.16
43292;BMP280;28754;47.700;7.924;2023-03-01T06:20:27;91367.56;;;-1.17
43292;BMP280;28754;47.700;7.924;2023-03-01T06:23:14;91368.75;;;-1.13
43292;BMP280;28754;47.700;7.924;2023-03-01T06:26:06;91365.06;;;-1.10
43292;BMP280;28754;47.700;7.924;2023-03-01T06:28:53;91366.25;;;-1.06
43292;BMP280;28754;47.700;7.924;2023-03-01T06:31:40;91382.50;;;-1.02
43292;BMP280;28754;47.700;7.924;2023-03-01T06:34:26;91379.00;;;-1.02
43292;BMP280;28754;47.700;7.924;2023-03-01T06:37:13;91379.59;;;-1.00
43292;BMP280;28754;47.700;7.924;2023-03-01T06:40:00;91373.59;;;-0.92
43292;BMP280;28754;47.700;7.924;2023-03-01T06:42:51;91374.22;;;-0.77
43292;BMP280;28754;47.700;7.924;2023-03-01T06:45:37;91376.56;;;-0.76
43292;BMP280;28754;47.700;7.924;2023-03-01T06:48:24;91380.41;;;-0.80
43292;BMP280;28754;47.700;7.924;2023-03-01T06:51:11;91389.69;;;-0.80
43292;BMP280;28754;47.700;7.924;2023-03-01T06:53:57;91405.91;;;-0.89
43292;BMP280;28754;47.700;7.924;2023-03-01T06:56:46;91389.47;;;-0.98
43292;BMP280;28754;47.700;7.924;2023-03-01T06:59:33;91391.56;;;-1.02
43292;BMP280;28754;47.700;7.924;2023-03-01T07:02:20;91385.03;;;-0.96
43292;BMP280;28754;47.700;7.924;2023-03-01T07:05:07;91385.41;;;-0.93
43292;BMP280;28754;47.700;7.924;2023-03-01T07:07:54;91381.53;;;-0.95
43292;BMP280;28754;47.700;7.924;2023-03-01T07:10:41;91390.25;;;-0.98
43292;BMP280;28754;47.700;7.924;2023-03-01T07:13:28;91394.88;;;-0.88
43292;BMP280;28754;47.700;7.924;2023-03-01T07:16:15;91396.66;;;-0.82
43292;BMP280;28754;47.700;7.924;2023-03-01T07:19:01;91389.88;;;-0.88
43292;BMP280;28754;47.700;7.924;2023-03-01T07:21:48;91388.09;;;-1.01
43292;BMP280;28754;47.700;7.924;2023-03-01T07:24:35;91388.66;;;-1.05
43292;BMP280;28754;47.700;7.924;2023-03-01T07:27:22;91382.84;;;-1.12
43292;BMP280;28754;47.700;7.924;2023-03-01T07:30:09;91382.66;;;-1.10
43292;BMP280;28754;47.700;7.924;2023-03-01T07:32:57;91391.56;;;-1.08
43292;BMP280;28754;47.700;7.924;2023-03-01T07:35:44;91377.06;;;-1.12
43292;BMP280;28754;47.700;7.924;2023-03-01T07:38:31;91385.50;;;-1.20
43292;BMP280;28754;47.700;7.924;2023-03-01T07:41:18;91375.84;;;-1.23
43292;BMP280;28754;47.700;7.924;2023-03-01T07:44:05;91380.50;;;-1.20
43292;BMP280;28754;47.700;7.924;2023-03-01T07:46:51;91386.50;;;-1.21
43292;BMP280;28754;47.700;7.924;2023-03-01T07:49:42;91372.97;;;-1.20
43292;BMP280;28754;47.700;7.924;2023-03-01T07:52:29;91387.66;;;-1.17
43292;BMP280;28754;47.700;7.924;2023-03-01T07:55:17;91379.38;;;-1.11
43292;BMP280;28754;47.700;7.924;2023-03-01T07:58:03;91359.88;;;-1.09
43292;BMP280;28754;47.700;7.924;2023-03-01T08:00:50;91369.94;;;-1.09
43292;BMP280;28754;47.700;7.924;2023-03-01T08:03:37;91362.97;;;-1.01
43292;BMP280;28754;47.700;7.924;2023-03-01T08:06:24;91368.97;;;-0.95
43292;BMP280;28754;47.700;7.924;2023-03-01T08:09:11;91365.88;;;-0.97
43292;BMP280;28754;47.700;7.924;2023-03-01T08:11:58;91379.41;;;-0.98
43292;BMP280;28754;47.700;7.924;2023-03-01T08:14:47;91366.63;;;-1.03
43292;BMP280;28754;47.700;7.924;2023-03-01T08:17:34;91369.72;;;-1.01
43292;BMP280;28754;47.700;7.924;2023-03-01T08:20:21;91371.47;;;-0.95
43292;BMP280;28754;47.700;7.924;2023-03-01T08:23:07;91360.09;;;-0.98
43292;BMP280;28754;47.700;7.924;2023-03-01T08:25:54;91369.16;;;-0.97
43292;BMP280;28754;47.700;7.924;2023-03-01T08:28:41;91374.75;;;-0.95
43292;BMP280;28754;47.700;7.924;2023-03-01T08:31:39;91377.50;;;-0.96
43292;BMP280;28754;47.700;7.924;2023-03-01T08:34:26;91380.38;;;-0.99
43292;BMP280;28754;47.700;7.924;2023-03-01T08:37:13;91378.03;;;-0.94
43292;BMP280;28754;47.700;7.924;2023-03-01T08:40:00;91376.53;;;-0.89
43292;BMP280;28754;47.700;7.924;2023-03-01T08:42:47;91363.38;;;-0.84
43292;BMP280;28754;47.700;7.924;2023-03-01T08:45:33;91372.66;;;-0.91
43292;BMP280;28754;47.700;7.924;2023-03-01T08:48:20;91376.09;;;-0.99
43292;BMP280;28754;47.700;7.924;2023-03-01T08:51:19;91380.53;;;-1.01
43292;BMP280;28754;47.700;7.924;2023-03-01T08:54:10;91367.03;;;-0.93
43292;BMP280;28754;47.700;7.924;2023-03-01T08:56:57;91380.78;;;-0.89
43292;BMP280;28754;47.700;7.924;2023-03-01T08:59:45;91368.22;;;-0.89
43292;BMP280;28754;47.700;7.924;2023-03-01T09:02:32;91356.59;;;-0.90
43292;BMP280;28754;47.700;7.924;2023-03-01T09:05:18;91360.69;;;-0.89
43292;BMP280;28754;47.700;7.924;2023-03-01T09:08:05;91346.78;;;-0.85
43292;BMP280;28754;47.700;7.924;2023-03-01T09:10:52;91360.88;;;-0.84
43292;BMP280;28754;47.700;7.924;2023-03-01T09:13:38;91344.44;;;-0.80
43292;BMP280;28754;47.700;7.924;2023-03-01T09:16:25;91339.03;;;-0.77
43292;BMP280;28754;47.700;7.924;2023-03-01T09:19:12;91339.81;;;-0.77
43292;BMP280;28754;47.700;7.924;2023-03-01T09:21:58;91351.81;;;-0.79
43292;BMP280;28754;47.700;7.924;2023-03-01T09:24:45;91354.09;;;-0.84
43292;BMP280;28754;47.700;7.924;2023-03-01T09:27:32;91352.94;;;-0.81
43292;BMP280;28754;47.700;7.924;2023-03-01T09:30:19;91353.75;;;-0.74
43292;BMP280;28754;47.700;7.924;2023-03-01T09:33:06;91344.44;;;-0.74
43292;BMP280;28754;47.700;7.924;2023-03-01T09:36:01;91351.81;;;-0.72
43292;BMP280;28754;47.700;7.924;2023-03-01T09:38:49;91351.81;;;-0.72
43292;BMP280;28754;47.700;7.924;2023-03-01T09:44:58;91356.03;;;-0.73
43292;BMP280;28754;47.700;7.924;2023-03-01T09:47:46;91351.59;;;-0.71
43292;BMP280;28754;47.700;7.924;2023-03-01T09:50:40;91358.38;;;-0.71
43292;BMP280;28754;47.700;7.924;2023-03-01T09:53:33;91335.94;;;-0.73
43292;BMP280;28754;47.700;7.924;2023-03-01T09:56:32;91350.44;;;-0.69
43292;BMP280;28754;47.700;7.924;2023-03-01T09:59:37;91342.53;;;-0.66
43292;BMP280;28754;47.700;7.924;2023-03-01T10:02:45;91337.50;;;-0.66
43292;BMP280;28754;47.700;7.924;2023-03-01T10:08:31;91340.00;;;-0.66
43292;BMP280;28754;47.700;7.924;2023-03-01T10:11:32;91332.84;;;-0.69
43292;BMP280;28754;47.700;7.924;2023-03-01T10:15:11;91345.03;;;-0.66
43292;BMP280;28754;47.700;7.924;2023-03-01T10:18:06;91342.91;;;-0.62
43292;BMP280;28754;47.700;7.924;2023-03-01T10:21:05;91341.19;;;-0.55
43292;BMP280;28754;47.700;7.924;2023-03-01T10:24:13;91339.25;;;-0.53
43292;BMP280;28754;47.700;7.924;2023-03-01T10:30:17;91331.88;;;-0.55
43292;BMP280;28754;47.700;7.924;2023-03-01T10:33:22;91314.69;;;-0.51
43292;BMP280;28754;47.700;7.924;2023-03-01T10:36:09;91318.72;;;-0.44
43292;BMP280;28754;47.700;7.924;2023-03-01T10:38:57;91313.69;;;-0.37
43292;BMP280;28754;47.700;7.924;2023-03-01T10:41:59;91314.28;;;-0.35
43292;BMP280;28754;47.700;7.924;2023-03-01T10:44:48;91314.09;;;-0.34
43292;BMP280;28754;47.700;7.924;2023-03-01T10:47:35;91307.13;;;-0.26
43292;BMP280;28754;47.700;7.924;2023-03-01T10:50:22;91312.13;;;-0.06
43292;BMP280;28754;47.700;7.924;2023-03-01T10:53:27;91311.28;;;0.06
43292;BMP280;28754;47.700;7.924;2023-03-01T10:56:15;91298.69;;;0.12
43292;BMP280;28754;47.700;7.924;2023-03-01T10:59:05;91312.81;;;0.20
43292;BMP280;28754;47.700;7.924;2023-03-01T11:02:29;91314.50;;;0.26
43292;BMP280;28754;47.700;7.924;2023-03-01T11:05:19;91307.75;;;0.26
43292;BMP280;28754;47.700;7.924;2023-03-01T11:08:06;91308.13;;;0.30
43292;BMP280;28754;47.700;7.924;2023-03-01T11:11:31;91294.72;;;0.35
43292;BMP280;28754;47.700;7.924;2023-03-01T11:14:24;91288.13;;;0.41
43292;BMP280;28754;47.700;7.924;2023-03-01T11:17:23;91283.84;;;0.48
43292;BMP280;28754;47.700;7.924;2023-03-01T11:23:13;91283.78;;;0.61
43292;BMP280;28754;47.700;7.924;2023-03-01T11:26:06;91297.72;;;0.63
43292;BMP280;28754;47.700;7.924;2023-03-01T11:28:58;91287.22;;;0.66
43292;BMP280;28754;47.700;7.924;2023-03-01T11:31:48;91284.31;;;0.69
43292;BMP280;28754;47.700;7.924;2023-03-01T11:37:43;91283.22;;;0.89
43292;BMP280;28754;47.700;7.924;2023-03-01T11:40:39;91301.44;;;0.91
43292;BMP280;28754;47.700;7.924;2023-03-01T11:46:34;91279.75;;;0.90
43292;BMP280;28754;47.700;7.924;2023-03-01T11:50:02;91272.34;;;0.95
43292;BMP280;28754;47.700;7.924;2023-03-01T11:56:35;91272.09;;;1.03
43292;BMP280;28754;47.700;7.924;2023-03-01T12:10:20;91264.53;;;1.03
43292;BMP280;28754;47.700;7.924;2023-03-01T12:26:35;91243.63;;;0.96
43292;BMP280;28754;47.700;7.924;2023-03-01T12:29:34;91255.84;;;0.99
43292;BMP280;28754;47.700;7.924;2023-03-01T12:42:44;91243.91;;;1.12
43292;BMP280;28754;47.700;7.924;2023-03-01T12:49:30;91232.75;;;1.26
43292;BMP280;28754;47.700;7.924;2023-03-01T12:52:29;91225.66;;;1.35
43292;BMP280;28754;47.700;7.924;2023-03-01T12:55:34;91218.00;;;1.47
43292;BMP280;28754;47.700;7.924;2023-03-01T12:58:32;91212.75;;;1.67
43292;BMP280;28754;47.700;7.924;2023-03-01T13:04:44;91214.94;;;1.99
43292;BMP280;28754;47.700;7.924;2023-03-01T13:10:53;91207.16;;;2.18
43292;BMP280;28754;47.700;7.924;2023-03-01T13:13:42;91212.13;;;2.24
43292;BMP280;28754;47.700;7.924;2023-03-01T13:19:27;91211.56;;;2.40
43292;BMP280;28754;47.700;7.924;2023-03-01T13:22:29;91205.31;;;2.42
43292;BMP280;28754;47.700;7.924;2023-03-01T13:25:19;91209.31;;;2.32
43292;BMP280;28754;47.700;7.924;2023-03-01T13:34:48;91219.94;;;2.52
43292;BMP280;28754;47.700;7.924;2023-03-01T13:37:37;91214.47;;;2.55
43292;BMP280;28754;47.700;7.924;2023-03-01T13:43:52;91220.09;;;2.57
43292;BMP280;28754;47.700;7.924;2023-03-01T13:46:38;91210.66;;;2.64
43292;BMP280;28754;47.700;7.924;2023-03-01T13:49:41;91222.44;;;2.70
43292;BMP280;28754;47.700;7.924;2023-03-01T13:52:40;91215.16;;;2.62
43292;BMP280;28754;47.700;7.924;2023-03-01T13:56:03;91223.72;;;2.61
43292;BMP280;28754;47.700;7.924;2023-03-01T13:58:59;91210.66;;;2.64
43292;BMP280;28754;47.700;7.924;2023-03-01T14:01:57;91212.88;;;2.72
43292;BMP280;28754;47.700;7.924;2023-03-01T14:04:56;91205.28;;;2.72
43292;BMP280;28754;47.700;7.924;2023-03-01T14:07:43;91215.44;;;2.83
43292;BMP280;28754;47.700;7.924;2023-03-01T14:10:54;91222.81;;;2.84
43292;BMP280;28754;47.700;7.924;2023-03-01T14:20:42;91202.28;;;2.92
43292;BMP280;28754;47.700;7.924;2023-03-01T14:23:29;91214.34;;;2.90
43292;BMP280;28754;47.700;7.924;2023-03-01T14:26:22;91201.31;;;2.93
43292;BMP280;28754;47.700;7.924;2023-03-01T14:29:35;91205.66;;;2.86
43292;BMP280;28754;47.700;7.924;2023-03-01T14:32:30;91209.19;;;2.85
43292;BMP280;28754;47.700;7.924;2023-03-01T14:35:25;91205.25;;;3.01
43292;BMP280;28754;47.700;7.924;2023-03-01T14:41:28;91215.03;;;2.97
43292;BMP280;28754;47.700;7.924;2023-03-01T14:44:22;91214.03;;;2.87
43292;BMP280;28754;47.700;7.924;2023-03-01T14:47:33;91209.63;;;2.82
43292;BMP280;28754;47.700;7.924;2023-03-01T14:50:31;91212.78;;;2.78
43292;BMP280;28754;47.700;7.924;2023-03-01T14:53:29;91213.31;;;2.69
43292;BMP280;28754;47.700;7.924;2023-03-01T14:56:17;91205.13;;;2.55
43292;BMP280;28754;47.700;7.924;2023-03-01T14:59:04;91214.00;;;2.46
43292;BMP280;28754;47.700;7.924;2023-03-01T15:01:55;91210.56;;;2.41
43292;BMP280;28754;47.700;7.924;2023-03-01T15:04:45;91211.88;;;2.43
43292;BMP280;28754;47.700;7.924;2023-03-01T15:07:38;91218.91;;;2.41
43292;BMP280;28754;47.700;7.924;2023-03-01T15:10:35;91211.00;;;2.38
43292;BMP280;28754;47.700;7.924;2023-03-01T15:13:26;91209.59;;;2.42
43292;BMP280;28754;47.700;7.924;2023-03-01T15:16:19;91213.84;;;2.41
43292;BMP280;28754;47.700;7.924;2023-03-01T15:19:07;91201.78;;;2.43
43292;BMP280;28754;47.700;7.924;2023-03-01T15:21:53;91202.13;;;2.47
43292;BMP280;28754;47.700;7.924;2023-03-01T15:24:40;91201.28;;;2.53
43292;BMP280;28754;47.700;7.924;2023-03-01T15:27:27;91198.69;;;2.71
43292;BMP280;28754;47.700;7.924;2023-03-01T15:30:32;91198.53;;;2.83
43292;BMP280;28754;47.700;7.924;2023-03-01T15:33:44;91186.78;;;2.89
43292;BMP280;28754;47.700;7.924;2023-03-01T15:36:44;91196.81;;;2.95
43292;BMP280;28754;47.700;7.924;2023-03-01T15:39:38;91187.97;;;2.86
43292;BMP280;28754;47.700;7.924;2023-03-01T15:48:14;91192.25;;;2.86
43292;BMP280;28754;47.700;7.924;2023-03-01T15:51:03;91192.59;;;2.89
43292;BMP280;28754;47.700;7.924;2023-03-01T15:53:52;91190.50;;;2.86
43292;BMP280;28754;47.700;7.924;2023-03-01T15:56:39;91196.00;;;2.83
43292;BMP280;28754;47.700;7.924;2023-03-01T15:59:28;91202.38;;;2.86
43292;BMP280;28754;47.700;7.924;2023-03-01T16:02:15;91200.13;;;2.78
43292;BMP280;28754;47.700;7.924;2023-03-01T16:05:02;91210.34;;;2.72
43292;BMP280;28754;47.700;7.924;2023-03-01T16:07:51;91203.41;;;2.67
43292;BMP280;28754;47.700;7.924;2023-03-01T16:10:39;91199.88;;;2.57
43292;BMP280;28754;47.700;7.924;2023-03-01T16:13:26;91223.88;;;2.48
43292;BMP280;28754;47.700;7.924;2023-03-01T16:16:15;91213.72;;;2.37
43292;BMP280;28754;47.700;7.924;2023-03-01T16:19:02;91227.06;;;2.26
43292;BMP280;28754;47.700;7.924;2023-03-01T16:21:49;91211.88;;;2.14
43292;BMP280;28754;47.700;7.924;2023-03-01T16:24:36;91208.22;;;2.10
43292;BMP280;28754;47.700;7.924;2023-03-01T16:27:23;91219.28;;;2.09
43292;BMP280;28754;47.700;7.924;2023-03-01T16:30:10;91222.44;;;2.05
43292;BMP280;28754;47.700;7.924;2023-03-01T16:33:00;91222.44;;;2.05
43292;BMP280;28754;47.700;7.924;2023-03-01T16:35:47;91241.94;;;1.98
43292;BMP280;28754;47.700;7.924;2023-03-01T16:38:34;91205.47;;;1.94
43292;BMP280;28754;47.700;7.924;2023-03-01T16:41:23;91214.63;;;1.95
43292;BMP280;28754;47.700;7.924;2023-03-01T16:44:10;91211.31;;;1.95
43292;BMP280;28754;47.700;7.924;2023-03-01T16:50:24;91203.75;;;1.95
43292;BMP280;28754;47.700;7.924;2023-03-01T16:53:11;91213.47;;;1.91
43292;BMP280;28754;47.700;7.924;2023-03-01T16:55:58;91221.50;;;1.88
43292;BMP280;28754;47.700;7.924;2023-03-01T16:58:45;91212.16;;;1.89
43292;BMP280;28754;47.700;7.924;2023-03-01T17:01:32;91238.22;;;1.83
43292;BMP280;28754;47.700;7.924;2023-03-01T17:04:23;91244.09;;;1.77
43292;BMP280;28754;47.700;7.924;2023-03-01T17:07:10;91216.97;;;1.72
43292;BMP280;28754;47.700;7.924;2023-03-01T17:09:57;91208.91;;;1.64
43292;BMP280;28754;47.700;7.924;2023-03-01T17:12:44;91228.59;;;1.56
43292;BMP280;28754;47.700;7.924;2023-03-01T17:15:30;91224.44;;;1.43
43292;BMP280;28754;47.700;7.924;2023-03-01T17:18:35;91225.91;;;1.33
43292;BMP280;28754;47.700;7.924;2023-03-01T17:21:21;91216.63;;;1.27
43292;BMP280;28754;47.700;7.924;2023-03-01T17:24:08;91237.22;;;1.24
43292;BMP280;28754;47.700;7.924;2023-03-01T17:26:55;91220.72;;;1.22
43292;BMP280;28754;47.700;7.924;2023-03-01T17:29:42;91216.69;;;1.21
43292;BMP280;28754;47.700;7.924;2023-03-01T17:32:28;91238.00;;;1.25
43292;BMP280;28754;47.700;7.924;2023-03-01T17:35:15;91243.03;;;1.25
43292;BMP280;28754;47.700;7.924;2023-03-01T17:38:03;91234.91;;;1.23
43292;BMP280;28754;47.700;7.924;2023-03-01T17:40:50;91245.34;;;1.26
43292;BMP280;28754;47.700;7.924;2023-03-01T17:43:37;91233.34;;;1.22
43292;BMP280;28754;47.700;7.924;2023-03-01T17:46:24;91254.94;;;1.18
43292;BMP280;28754;47.700;7.924;2023-03-01T17:49:12;91270.63;;;1.20
43292;BMP280;28754;47.700;7.924;2023-03-01T17:51:59;91267.25;;;1.26
43292;BMP280;28754;47.700;7.924;2023-03-01T17:54:46;91274.06;;;1.25
43292;BMP280;28754;47.700;7.924;2023-03-01T17:57:33;91284.19;;;1.19
43292;BMP280;28754;47.700;7.924;2023-03-01T18:00:20;91277.66;;;1.11
43292;BMP280;28754;47.700;7.924;2023-03-01T18:03:07;91286.22;;;1.04
43292;BMP280;28754;47.700;7.924;2023-03-01T18:05:53;91261.63;;;1.00
43292;BMP280;28754;47.700;7.924;2023-03-01T18:08:41;91283.19;;;0.96
43292;BMP280;28754;47.700;7.924;2023-03-01T18:11:28;91285.13;;;0.94
43292;BMP280;28754;47.700;7.924;2023-03-01T18:14:14;91285.34;;;0.92
43292;BMP280;28754;47.700;7.924;2023-03-01T18:17:01;91304.13;;;0.96
43292;BMP280;28754;47.700;7.924;2023-03-01T18:19:51;91275.34;;;1.10
43292;BMP280;28754;47.700;7.924;2023-03-01T18:22:38;91274.06;;;1.25